Terminal Aerodrome Forecast
Issued by NWS Wilmington, OH

Current Version | Previous Version | Text Only | Print | Product List | Glossary Off
Versions: 1 2 3 4 5 6 7 8 9 10 11 12 13 14 15 16 17 18 19 20 21 22 23 24 25 26 27 28 29 30 31 32

000
FTUS41 KILN 171734
TAFCVG
TAF
KCVG 171734Z 1718/1824 26012G19KT P6SM OVC025
      TEMPO 1718/1719 SCT025 BKN050
     FM180000 26012G17KT P6SM VCSH OVC015
     FM181200 25008KT P6SM OVC012=

USA.gov is the U.S. government's official web portal to all federal, state and local government web resources and services.